createdAt,value
2018-03-30T00:02:17.312Z,13.45
2018-03-30T00:04:45.611Z,13.52
2018-03-30T00:07:13.172Z,13.65
2018-03-30T00:09:52.719Z,15.13
2018-03-30T00:12:20.261Z,12.45
2018-03-30T00:14:48.600Z,13.05
2018-03-30T00:17:16.142Z,13.45
2018-03-30T00:19:43.722Z,12.23
2018-03-30T00:22:11.283Z,12.57
2018-03-30T00:24:38.802Z,9.38
2018-03-30T00:27:06.345Z,9.38
2018-03-30T00:29:33.890Z,7.47
2018-03-30T00:32:02.197Z,9.65
2018-03-30T00:34:29.741Z,7.62
2018-03-30T00:36:57.258Z,7.47
2018-03-30T00:39:24.778Z,7.70
2018-03-30T00:41:52.331Z,6.43
2018-03-30T00:44:19.878Z,6.28
2018-03-30T00:46:47.425Z,6.28
2018-03-30T00:49:14.992Z,7.25
2018-03-30T00:51:42.533Z,6.55
2018-03-30T00:54:10.836Z,6.45
2018-03-30T00:56:38.359Z,6.87
2018-03-30T00:59:05.892Z,6.55
2018-03-30T01:01:33.435Z,6.93
2018-03-30T01:04:01.001Z,5.35
2018-03-30T01:06:28.518Z,6.43
2018-03-30T01:08:56.073Z,7.65
2018-03-30T01:11:24.386Z,6.32
2018-03-30T01:13:51.926Z,7.15
2018-03-30T01:16:19.457Z,6.03
2018-03-30T01:18:47.780Z,6.72
2018-03-30T01:21:15.319Z,5.87
2018-03-30T01:23:42.880Z,6.45
2018-03-30T01:26:10.422Z,6.30
2018-03-30T01:28:38.740Z,6.62
2018-03-30T01:31:06.261Z,6.85
2018-03-30T01:33:33.811Z,6.75
2018-03-30T01:36:02.097Z,6.75
2018-03-30T01:38:29.655Z,7.25
2018-03-30T01:40:57.205Z,6.37
2018-03-30T01:43:25.523Z,6.35
2018-03-30T01:45:53.062Z,7.07
2018-03-30T01:48:20.620Z,6.93
2018-03-30T01:50:48.155Z,6.72
2018-03-30T01:53:16.472Z,7.20
2018-03-30T01:55:44.008Z,7.55
2018-03-30T01:58:11.569Z,7.03
2018-03-30T02:00:39.121Z,8.38
2018-03-30T02:03:06.679Z,6.90
2018-03-30T02:05:34.197Z,7.30
2018-03-30T02:08:01.748Z,6.75
2018-03-30T02:10:29.267Z,6.87
2018-03-30T02:12:56.823Z,7.47
2018-03-30T02:15:24.365Z,7.45
2018-03-30T02:17:52.670Z,7.43
2018-03-30T02:20:20.204Z,8.25
2018-03-30T02:22:48.535Z,7.50
2018-03-30T02:25:16.058Z,7.78
2018-03-30T02:27:43.620Z,7.03
2018-03-30T02:30:11.185Z,8.55
2018-03-30T02:32:38.727Z,6.72
2018-03-30T02:35:06.265Z,7.10
2018-03-30T02:37:34.572Z,7.15
2018-03-30T02:40:02.128Z,8.02
2018-03-30T02:42:29.667Z,7.35
2018-03-30T02:44:57.997Z,6.95
2018-03-30T02:47:25.550Z,7.85
2018-03-30T02:49:53.100Z,7.47
2018-03-30T02:52:20.658Z,7.80
2018-03-30T02:54:48.208Z,7.35
2018-03-30T02:57:15.753Z,7.37
2018-03-30T02:59:43.289Z,7.90
2018-03-30T03:02:11.592Z,7.60
2018-03-30T03:04:39.158Z,7.37
2018-03-30T03:07:06.703Z,7.95
2018-03-30T03:09:34.255Z,8.38
2018-03-30T03:12:02.559Z,9.75
2018-03-30T03:14:30.115Z,9.18
2018-03-30T03:16:57.661Z,8.85
2018-03-30T03:19:25.198Z,9.25
2018-03-30T03:21:53.495Z,7.93
2018-03-30T03:24:21.042Z,8.65
2018-03-30T03:26:49.354Z,8.45
2018-03-30T03:29:17.688Z,10.27
2018-03-30T03:31:46.011Z,9.68
2018-03-30T03:34:13.575Z,9.50
2018-03-30T03:36:41.104Z,9.70
2018-03-30T03:39:08.663Z,10.57
2018-03-30T03:41:36.211Z,11.63
2018-03-30T03:44:03.761Z,10.63
2018-03-30T03:46:32.063Z,10.98
2018-03-30T03:48:59.618Z,10.82
2018-03-30T03:51:27.153Z,11.45
2018-03-30T03:53:55.483Z,10.65
2018-03-30T03:56:23.015Z,12.68
2018-03-30T03:58:50.581Z,11.60
2018-03-30T04:01:18.119Z,10.18
2018-03-30T04:03:46.448Z,9.80
2018-03-30T04:06:13.990Z,10.70
2018-03-30T04:08:42.307Z,10.40
2018-03-30T04:11:09.837Z,9.63
2018-03-30T04:13:37.384Z,9.18
2018-03-30T04:16:04.917Z,10.90
2018-03-30T04:18:32.445Z,9.80
2018-03-30T04:20:59.990Z,11.80
2018-03-30T04:23:27.554Z,10.30
2018-03-30T04:25:55.113Z,10.27
2018-03-30T04:28:22.677Z,10.90
2018-03-30T04:30:50.224Z,11.07
2018-03-30T04:33:17.769Z,10.50
2018-03-30T04:35:45.303Z,10.25
2018-03-30T04:38:12.865Z,11.05
2018-03-30T04:40:40.394Z,11.23
2018-03-30T04:43:08.887Z,10.93
2018-03-30T04:45:36.448Z,10.18
2018-03-30T04:48:04.000Z,10.85
2018-03-30T04:50:32.313Z,11.73
2018-03-30T04:52:59.881Z,9.60
2018-03-30T04:55:27.417Z,9.85
2018-03-30T04:57:54.954Z,10.65
2018-03-30T05:00:23.260Z,11.30
2018-03-30T05:02:50.822Z,10.50
2018-03-30T05:05:18.356Z,10.27
2018-03-30T05:07:45.923Z,9.68
2018-03-30T05:10:13.522Z,9.57
2018-03-30T05:12:41.049Z,11.07
2018-03-30T05:15:08.613Z,10.57
2018-03-30T05:17:36.170Z,10.65
2018-03-30T05:20:03.711Z,10.43
2018-03-30T05:22:31.243Z,12.23
2018-03-30T05:24:58.803Z,10.23
2018-03-30T05:27:26.345Z,10.63
2018-03-30T05:29:53.895Z,9.93
2018-03-30T05:32:21.427Z,9.88
2018-03-30T05:34:48.974Z,10.02
2018-03-30T05:37:16.497Z,10.95
2018-03-30T05:39:44.045Z,10.40
2018-03-30T05:42:11.584Z,9.90
2018-03-30T05:44:39.131Z,9.25
2018-03-30T05:47:06.677Z,8.55
2018-03-30T05:49:34.235Z,8.70
2018-03-30T05:52:01.768Z,9.27
2018-03-30T05:54:29.339Z,10.43
2018-03-30T05:56:56.880Z,9.23
2018-03-30T05:59:26.077Z,9.35
2018-03-30T06:01:53.697Z,9.68
2018-03-30T06:04:21.256Z,9.50
2018-03-30T06:06:48.784Z,9.52
2018-03-30T06:09:16.341Z,9.55
2018-03-30T06:11:43.893Z,9.00
2018-03-30T06:14:11.496Z,11.25
2018-03-30T06:16:39.051Z,9.82
2018-03-30T06:19:06.797Z,10.93
2018-03-30T06:21:35.119Z,8.68
2018-03-30T06:24:02.690Z,9.38
2018-03-30T06:26:30.363Z,8.95
2018-03-30T06:28:58.689Z,8.20
2018-03-30T06:31:26.220Z,8.50
2018-03-30T06:33:53.771Z,7.95
2018-03-30T06:36:23.970Z,10.20
2018-03-30T06:38:52.313Z,8.50
2018-03-30T06:41:19.848Z,9.60
2018-03-30T06:43:47.399Z,9.07
2018-03-30T06:46:14.925Z,9.63
2018-03-30T06:48:43.258Z,9.30
2018-03-30T06:51:10.795Z,10.25
2018-03-30T06:53:38.341Z,10.85
2018-03-30T06:56:05.862Z,9.77
2018-03-30T06:58:33.576Z,9.70
2018-03-30T07:01:01.217Z,8.82
2018-03-30T07:03:29.565Z,8.00
2018-03-30T07:05:57.209Z,7.57
2018-03-30T07:08:24.754Z,7.45
2018-03-30T07:10:52.291Z,7.75
2018-03-30T07:13:20.605Z,7.32
2018-03-30T07:15:48.165Z,7.85
2018-03-30T07:18:15.715Z,7.68
2018-03-30T07:20:43.242Z,7.62
2018-03-30T07:23:10.800Z,8.60
2018-03-30T07:25:38.333Z,8.50
2018-03-30T07:28:06.744Z,9.13
2018-03-30T07:30:34.287Z,9.20
2018-03-30T07:33:02.613Z,9.20
2018-03-30T07:35:30.313Z,8.80
2018-03-30T07:37:57.896Z,8.77
2018-03-30T07:40:25.433Z,8.80
2018-03-30T07:42:53.755Z,9.53
2018-03-30T07:45:21.278Z,8.70
2018-03-30T07:47:49.614Z,8.67
2018-03-30T07:50:17.157Z,9.10
2018-03-30T07:52:44.713Z,8.47
2018-03-30T07:55:12.262Z,9.10
2018-03-30T07:57:40.619Z,9.47
2018-03-30T08:00:08.190Z,8.73
2018-03-30T08:02:35.741Z,8.55
2018-03-30T08:05:03.293Z,8.10
2018-03-30T08:07:30.841Z,7.83
2018-03-30T08:09:58.427Z,9.47
2018-03-30T08:12:25.975Z,7.80
2018-03-30T08:14:53.535Z,7.17
2018-03-30T08:17:21.086Z,7.43
2018-03-30T08:19:48.650Z,7.13
2018-03-30T08:22:16.185Z,7.53
2018-03-30T08:24:43.726Z,6.97
2018-03-30T08:27:12.027Z,7.53
2018-03-30T08:29:39.701Z,7.40
2018-03-30T08:32:07.233Z,6.70
2018-03-30T08:34:34.807Z,5.67
2018-03-30T08:37:02.337Z,7.20
2018-03-30T08:39:30.655Z,6.70
2018-03-30T08:41:58.197Z,6.70
2018-03-30T08:44:25.751Z,5.97
2018-03-30T08:46:53.280Z,5.87
2018-03-30T08:49:21.664Z,5.80
2018-03-30T08:51:49.197Z,5.63
2018-03-30T08:54:16.776Z,5.53
2018-03-30T08:56:45.093Z,5.97
2018-03-30T08:59:12.652Z,5.40
2018-03-30T09:01:40.190Z,4.60
2018-03-30T09:04:07.738Z,6.40
2018-03-30T09:06:36.082Z,4.87
2018-03-30T09:09:03.647Z,4.47
2018-03-30T09:11:31.240Z,4.80
2018-03-30T09:13:58.862Z,5.20
2018-03-30T09:16:26.374Z,5.07
2018-03-30T09:18:53.926Z,6.47
2018-03-30T09:21:21.476Z,5.80
2018-03-30T09:23:49.810Z,5.27
2018-03-30T09:26:17.337Z,5.40
2018-03-30T09:28:44.879Z,4.90
2018-03-30T09:31:12.415Z,5.27
2018-03-30T09:33:40.739Z,5.70
2018-03-30T09:36:08.329Z,5.70
2018-03-30T09:38:35.886Z,5.28
2018-03-30T09:41:03.442Z,7.10
2018-03-30T09:43:31.167Z,5.50
2018-03-30T09:45:58.722Z,4.10
2018-03-30T09:48:27.046Z,5.20
2018-03-30T09:50:54.627Z,5.00
2018-03-30T09:53:22.173Z,5.27
2018-03-30T09:55:49.707Z,5.70
2018-03-30T09:58:17.265Z,5.70
2018-03-30T10:00:44.818Z,6.10
2018-03-30T10:03:12.372Z,4.87
2018-03-30T10:05:39.904Z,5.63
2018-03-30T10:08:07.466Z,5.97
2018-03-30T10:10:35.761Z,4.30
2018-03-30T10:13:04.074Z,4.47
2018-03-30T10:15:31.617Z,3.77
2018-03-30T10:17:59.176Z,3.67
2018-03-30T10:20:26.771Z,3.80
2018-03-30T10:22:54.334Z,3.93
2018-03-30T10:25:21.863Z,3.53
2018-03-30T10:27:49.452Z,4.03
2018-03-30T10:30:17.008Z,4.63
2018-03-30T10:32:46.397Z,4.80
2018-03-30T10:35:13.963Z,5.20
2018-03-30T10:37:41.586Z,4.90
2018-03-30T10:40:09.275Z,4.67
2018-03-30T10:42:36.846Z,4.73
2018-03-30T10:45:04.405Z,3.37
2018-03-30T10:47:32.013Z,3.77
2018-03-30T10:50:00.360Z,4.47
2018-03-30T10:52:27.899Z,4.07
2018-03-30T10:54:55.433Z,3.57
2018-03-30T10:57:22.967Z,3.53
2018-03-30T10:59:51.278Z,3.33
2018-03-30T11:02:18.798Z,3.80
2018-03-30T11:04:47.115Z,3.87
2018-03-30T11:07:14.648Z,3.70
2018-03-30T11:09:42.187Z,4.67
2018-03-30T11:12:10.508Z,3.60
2018-03-30T11:14:38.081Z,4.13
2018-03-30T11:17:05.741Z,4.90
2018-03-30T11:19:33.311Z,4.57
2018-03-30T11:22:00.847Z,4.43
2018-03-30T11:24:29.168Z,4.43
2018-03-30T11:26:56.689Z,3.67
2018-03-30T11:29:24.258Z,5.60
2018-03-30T11:31:51.805Z,4.00
2018-03-30T11:34:19.379Z,4.40
2018-03-30T11:36:46.921Z,5.20
2018-03-30T11:39:14.470Z,5.00
2018-03-30T11:41:41.990Z,5.07
2018-03-30T11:44:10.358Z,4.83
2018-03-30T11:46:37.878Z,4.67
2018-03-30T11:49:05.439Z,4.23
2018-03-30T11:51:32.984Z,4.80
2018-03-30T11:54:00.632Z,4.60
2018-03-30T11:56:28.178Z,3.53
2018-03-30T11:58:56.519Z,6.37
2018-03-30T12:01:24.064Z,7.30
2018-03-30T12:03:52.425Z,7.80
2018-03-30T12:06:19.964Z,6.70
2018-03-30T12:08:47.524Z,8.07
2018-03-30T12:11:15.081Z,5.33
2018-03-30T12:13:42.629Z,6.43
2018-03-30T12:16:10.926Z,7.20
2018-03-30T12:18:38.480Z,5.50
2018-03-30T12:21:06.030Z,5.47
2018-03-30T12:23:34.494Z,6.40
2018-03-30T12:26:02.862Z,6.77
2018-03-30T12:28:31.281Z,6.83
2018-03-30T12:30:58.828Z,5.80
2018-03-30T12:33:26.366Z,7.30
2018-03-30T12:35:53.885Z,6.67
2018-03-30T12:38:21.453Z,7.93
2018-03-30T12:40:48.978Z,4.40
2018-03-30T12:43:17.303Z,5.97
2018-03-30T12:45:44.833Z,6.00
2018-03-30T12:48:12.378Z,7.00
2018-03-30T12:50:39.934Z,6.20
2018-03-30T12:53:08.272Z,5.37
2018-03-30T12:55:36.567Z,6.30
2018-03-30T12:58:04.124Z,5.20
2018-03-30T13:00:31.758Z,7.33
2018-03-30T13:02:59.333Z,6.60
2018-03-30T13:05:26.856Z,6.70
2018-03-30T13:07:55.155Z,7.23
2018-03-30T13:10:22.729Z,7.10
2018-03-30T13:12:50.276Z,5.80
2018-03-30T13:15:17.831Z,6.87
2018-03-30T13:17:45.372Z,7.60
2018-03-30T13:20:13.725Z,6.20
2018-03-30T13:22:41.256Z,5.77
2018-03-30T13:25:09.570Z,6.90
2018-03-30T13:27:37.103Z,6.33
2018-03-30T13:30:04.674Z,5.97
2018-03-30T13:32:32.240Z,6.60
2018-03-30T13:34:59.834Z,6.97
2018-03-30T13:37:27.535Z,5.00
2018-03-30T13:39:55.086Z,7.23
2018-03-30T13:42:22.640Z,6.97
2018-03-30T13:44:50.219Z,6.97
2018-03-30T13:47:17.793Z,6.57
2018-03-30T13:49:45.343Z,5.57
2018-03-30T13:52:14.516Z,6.13
2018-03-30T13:54:42.067Z,6.07
2018-03-30T13:57:12.105Z,5.93
2018-03-30T13:59:39.662Z,6.53
2018-03-30T14:02:12.930Z,7.10
2018-03-30T14:04:41.264Z,7.40
2018-03-30T14:07:08.793Z,7.10
2018-03-30T14:09:37.065Z,7.40
2018-03-30T14:12:06.893Z,6.53
2018-03-30T14:14:34.433Z,6.53
2018-03-30T14:17:14.859Z,7.10
2018-03-30T14:19:43.488Z,7.03
2018-03-30T14:22:22.727Z,6.50
2018-03-30T14:24:51.043Z,7.27
2018-03-30T14:27:20.363Z,6.10
2018-03-30T14:29:48.724Z,6.60
2018-03-30T14:32:21.982Z,7.07
2018-03-30T14:34:55.044Z,7.27
2018-03-30T14:37:26.140Z,6.10
2018-03-30T14:39:59.425Z,6.80
2018-03-30T14:42:26.897Z,7.03
2018-03-30T14:45:03.958Z,5.87
2018-03-30T14:47:34.459Z,5.50
2018-03-30T14:50:02.081Z,6.60
2018-03-30T14:52:36.177Z,7.07
2018-03-30T14:55:27.243Z,7.57
2018-03-30T15:01:10.007Z,6.77
2018-03-30T15:03:48.231Z,6.60
2018-03-30T15:06:22.370Z,5.90
2018-03-30T15:08:53.840Z,6.70
2018-03-30T15:11:28.897Z,6.00
2018-03-30T15:14:02.306Z,6.23
2018-03-30T15:16:30.676Z,7.03
2018-03-30T15:19:02.088Z,5.70
2018-03-30T15:21:33.041Z,7.00
2018-03-30T15:24:05.401Z,6.97
2018-03-30T15:26:34.746Z,8.07
2018-03-30T15:29:06.799Z,8.63
2018-03-30T15:31:47.843Z,7.73
2018-03-30T15:34:20.145Z,8.57
2018-03-30T15:37:03.429Z,5.80
2018-03-30T15:39:31.029Z,8.73
2018-03-30T15:41:59.388Z,8.17
2018-03-30T15:44:26.966Z,8.90
2018-03-30T15:46:56.307Z,9.50
2018-03-30T15:49:23.875Z,9.50
2018-03-30T15:51:54.341Z,9.37
2018-03-30T15:54:21.418Z,8.53
2018-03-30T15:56:49.781Z,8.70
2018-03-30T15:59:17.328Z,9.40
2018-03-30T16:01:44.878Z,8.43
2018-03-30T16:04:12.475Z,8.40
2018-03-30T16:06:40.055Z,10.27
2018-03-30T16:09:08.483Z,8.93
2018-03-30T16:11:36.823Z,8.90
2018-03-30T16:14:04.603Z,7.23
2018-03-30T16:16:32.156Z,9.30
2018-03-30T16:18:59.324Z,9.70
2018-03-30T16:21:26.376Z,9.33
2018-03-30T16:23:53.452Z,8.80
2018-03-30T16:26:20.494Z,9.17
2018-03-30T16:28:47.554Z,8.10
2018-03-30T16:31:15.380Z,7.33
2018-03-30T16:33:42.433Z,8.20
2018-03-30T16:36:09.475Z,7.60
2018-03-30T16:38:36.539Z,8.13
2018-03-30T16:41:03.610Z,8.47
2018-03-30T16:43:31.608Z,8.73
2018-03-30T16:45:58.680Z,7.87
2018-03-30T16:48:25.748Z,8.47
2018-03-30T16:50:52.862Z,7.80
2018-03-30T16:53:20.660Z,7.90
2018-03-30T16:55:47.735Z,8.00
2018-03-30T16:58:15.591Z,7.83
2018-03-30T17:00:42.708Z,6.93
2018-03-30T17:03:09.776Z,7.90
2018-03-30T17:05:36.833Z,7.80
2018-03-30T17:08:04.357Z,7.67
2018-03-30T17:10:31.691Z,6.50
2018-03-30T17:12:58.746Z,7.00
2018-03-30T17:15:25.826Z,6.90
2018-03-30T17:17:52.883Z,6.70
2018-03-30T17:20:19.946Z,7.50
2018-03-30T17:22:47.050Z,7.50
2018-03-30T17:25:14.116Z,6.60
2018-03-30T17:27:41.160Z,7.23
2018-03-30T17:30:08.289Z,6.47
2018-03-30T17:32:36.280Z,7.57
2018-03-30T17:35:03.394Z,6.50
2018-03-30T17:37:30.498Z,6.90
2018-03-30T17:39:57.638Z,9.00
2018-03-30T17:42:24.717Z,7.77
2018-03-30T17:44:52.600Z,7.40
2018-03-30T17:47:19.682Z,8.00
2018-03-30T17:49:46.759Z,6.60
2018-03-30T17:52:13.842Z,7.80
2018-03-30T17:54:40.911Z,7.40
2018-03-30T17:57:07.959Z,7.07
2018-03-30T17:59:35.041Z,6.93
2018-03-30T18:02:02.115Z,8.43
2018-03-30T18:04:29.962Z,6.90
2018-03-30T18:06:57.015Z,6.87
2018-03-30T18:09:24.095Z,7.10
2018-03-30T18:11:51.175Z,7.90
2018-03-30T18:14:18.282Z,7.40
2018-03-30T18:16:45.371Z,8.43
2018-03-30T18:19:12.449Z,7.70
2018-03-30T18:21:39.509Z,9.50
2018-03-30T18:24:06.593Z,11.30
2018-03-30T18:26:33.729Z,10.73
2018-03-30T18:29:00.841Z,13.25
2018-03-30T18:31:27.901Z,11.13
2018-03-30T18:33:54.990Z,10.80
2018-03-30T18:36:22.824Z,9.10
2018-03-30T18:38:50.669Z,8.10
2018-03-30T18:41:17.732Z,8.90
2018-03-30T18:43:44.797Z,10.53
2018-03-30T18:46:11.877Z,8.93
2018-03-30T18:48:39.002Z,18.00
2018-03-30T18:51:06.084Z,14.83
2018-03-30T18:53:33.167Z,10.10
2018-03-30T18:56:00.319Z,8.70
2018-03-30T18:58:27.538Z,8.27
2018-03-30T19:00:54.602Z,9.47
2018-03-30T19:03:21.683Z,9.13
2018-03-30T19:05:49.501Z,12.33
2018-03-30T19:08:16.584Z,10.03
2018-03-30T19:10:43.631Z,9.80
2018-03-30T19:13:10.696Z,9.33
2018-03-30T19:15:37.767Z,7.97
2018-03-30T19:18:04.825Z,8.97
2018-03-30T19:20:32.032Z,9.67
2018-03-30T19:22:59.107Z,7.97
2018-03-30T19:25:26.179Z,10.23
2018-03-30T19:27:53.221Z,8.43
2018-03-30T19:30:20.318Z,8.33
2018-03-30T19:32:47.394Z,8.80
2018-03-30T19:35:14.471Z,8.17
2018-03-30T19:37:41.578Z,8.00
2018-03-30T19:40:09.489Z,8.27
2018-03-30T19:42:36.596Z,8.40
2018-03-30T19:45:03.766Z,8.70
2018-03-30T19:47:30.913Z,8.83
2018-03-30T19:49:57.980Z,9.20
2018-03-30T19:52:25.022Z,10.10
2018-03-30T19:54:52.088Z,9.10
2018-03-30T19:57:19.153Z,8.03
2018-03-30T19:59:46.224Z,8.97
2018-03-30T20:02:14.079Z,9.00
2018-03-30T20:04:41.145Z,7.23
2018-03-30T20:07:08.245Z,8.60
2018-03-30T20:09:35.357Z,10.57
2018-03-30T20:12:02.474Z,8.30
2018-03-30T20:14:29.548Z,9.13
2018-03-30T20:16:56.621Z,8.87
2018-03-30T20:19:23.693Z,8.70
2018-03-30T20:21:50.748Z,8.93
2018-03-30T20:24:17.820Z,8.37
2018-03-30T20:26:45.680Z,8.03
2018-03-30T20:29:12.775Z,8.53
2018-03-30T20:31:39.885Z,6.77
2018-03-30T20:34:07.735Z,8.17
2018-03-30T20:36:34.798Z,7.40
2018-03-30T20:39:02.618Z,8.50
2018-03-30T20:41:29.700Z,10.10
2018-03-30T20:43:57.593Z,13.47
2018-03-30T20:46:25.487Z,13.00
2018-03-30T20:48:52.579Z,11.50
2018-03-30T20:51:19.681Z,10.30
2018-03-30T20:53:46.747Z,7.97
2018-03-30T20:56:13.812Z,10.47
2018-03-30T20:58:40.883Z,10.03
2018-03-30T21:01:07.973Z,9.60
2018-03-30T21:03:35.190Z,10.60
2018-03-30T21:06:03.075Z,10.47
2018-03-30T21:08:30.230Z,10.37
2018-03-30T21:10:58.016Z,10.87
2018-03-30T21:13:25.088Z,12.23
2018-03-30T21:15:52.138Z,10.40
2018-03-30T21:18:19.224Z,10.70
2018-03-30T21:20:47.067Z,12.13
2018-03-30T21:23:14.899Z,10.93
2018-03-30T21:25:41.949Z,11.93
2018-03-30T21:28:09.101Z,11.87
2018-03-30T21:30:36.305Z,10.93
2018-03-30T21:33:03.380Z,11.23
2018-03-30T21:35:30.468Z,12.77
2018-03-30T21:37:57.702Z,10.97
2018-03-30T21:40:24.908Z,13.50
2018-03-30T21:42:51.964Z,13.40
2018-03-30T21:45:19.875Z,13.13
2018-03-30T21:47:46.937Z,12.77
2018-03-30T21:50:14.789Z,11.97
2018-03-30T21:52:41.840Z,12.47
2018-03-30T21:55:08.917Z,11.90
2018-03-30T21:57:35.968Z,12.07
2018-03-30T22:00:03.040Z,12.00
2018-03-30T22:02:30.108Z,12.57
2018-03-30T22:04:58.194Z,9.57
2018-03-30T22:07:25.239Z,9.93
2018-03-30T22:09:52.307Z,8.67
2018-03-30T22:12:19.676Z,9.40
2018-03-30T22:14:47.601Z,9.23
2018-03-30T22:17:16.263Z,10.30
2018-03-30T22:19:43.328Z,9.33
2018-03-30T22:22:11.153Z,8.70
2018-03-30T22:24:38.225Z,9.50
2018-03-30T22:29:52.815Z,9.50
2018-03-30T22:32:21.755Z,8.70
2018-03-30T22:34:50.540Z,8.77
2018-03-30T22:37:17.767Z,9.50
2018-03-30T22:39:44.860Z,8.80
2018-03-30T22:42:13.671Z,7.73
2018-03-30T22:44:42.472Z,8.80
2018-03-30T22:47:09.527Z,9.50
2018-03-30T22:49:36.622Z,10.10
2018-03-30T22:52:03.684Z,8.77
2018-03-30T22:54:31.682Z,9.20
2018-03-30T22:56:58.731Z,9.07
2018-03-30T22:59:25.894Z,9.60
2018-03-30T23:01:52.940Z,9.10
2018-03-30T23:04:19.993Z,9.60
2018-03-30T23:06:47.804Z,9.77
2018-03-30T23:09:14.878Z,8.83
2018-03-30T23:11:42.705Z,9.10
2018-03-30T23:14:09.827Z,9.03
2018-03-30T23:16:36.862Z,9.18
2018-03-30T23:19:03.918Z,9.70
2018-03-30T23:21:31.735Z,8.83
2018-03-30T23:23:58.830Z,9.00
2018-03-30T23:26:25.870Z,8.37
2018-03-30T23:28:52.950Z,7.77
2018-03-30T23:31:20.004Z,7.13
2018-03-30T23:33:47.054Z,6.13
2018-03-30T23:36:14.103Z,5.73
2018-03-30T23:38:41.193Z,6.23
2018-03-30T23:41:08.370Z,5.80
2018-03-30T23:43:35.466Z,4.87
2018-03-30T23:46:02.645Z,5.30
2018-03-30T23:48:29.700Z,4.50
2018-03-30T23:50:56.765Z,3.90
2018-03-30T23:53:23.836Z,4.43
2018-03-30T23:55:50.874Z,3.80
2018-03-30T23:58:17.939Z,3.43
